createdAt,value
2022-10-06T00:00:37.404Z,16.80
2022-10-06T00:03:23.069Z,16.80
2022-10-06T00:06:11.223Z,16.80
2022-10-06T00:08:56.921Z,16.80
2022-10-06T00:11:42.635Z,16.80
2022-10-06T00:14:28.525Z,16.70
2022-10-06T00:17:14.338Z,16.60
2022-10-06T00:19:59.957Z,16.60
2022-10-06T00:22:48.359Z,16.60
2022-10-06T00:25:34.233Z,16.60
2022-10-06T00:28:20.250Z,16.50
2022-10-06T00:31:06.148Z,16.50
2022-10-06T00:33:51.741Z,16.50
2022-10-06T00:36:37.499Z,16.40
2022-10-06T00:39:22.992Z,16.40
2022-10-06T00:42:27.999Z,16.40
2022-10-06T00:45:14.779Z,16.40
2022-10-06T00:48:05.252Z,16.40
2022-10-06T00:50:57.971Z,16.40
2022-10-06T00:53:43.925Z,16.40
2022-10-06T00:56:29.598Z,16.30
2022-10-06T00:59:18.351Z,16.30
2022-10-06T01:02:39.226Z,16.30
2022-10-06T01:05:31.967Z,16.30
2022-10-06T01:08:17.842Z,16.30
2022-10-06T01:11:03.745Z,16.30
2022-10-06T01:13:49.745Z,16.30
2022-10-06T01:16:39.645Z,16.20
2022-10-06T01:19:52.648Z,16.30
2022-10-06T01:22:44.883Z,16.30
2022-10-06T01:25:33.726Z,16.30
2022-10-06T01:28:19.862Z,16.30
2022-10-06T01:31:08.401Z,16.30
2022-10-06T01:33:54.843Z,16.20
2022-10-06T01:36:41.572Z,16.30
2022-10-06T01:39:27.895Z,16.20
2022-10-06T01:42:13.683Z,16.20
2022-10-06T01:44:59.870Z,16.20
2022-10-06T01:47:45.458Z,16.20
2022-10-06T01:50:31.055Z,16.20
2022-10-06T01:53:17.515Z,16.20
2022-10-06T01:56:03.107Z,16.20
2022-10-06T01:58:49.719Z,16.20
2022-10-06T02:01:36.251Z,16.20
2022-10-06T02:04:22.178Z,16.20
2022-10-06T02:07:08.114Z,16.20
2022-10-06T02:10:01.207Z,16.20
2022-10-06T02:12:51.975Z,16.20
2022-10-06T02:15:39.359Z,16.20
2022-10-06T02:18:26.072Z,16.20
2022-10-06T02:21:16.283Z,16.20
2022-10-06T02:24:02.266Z,16.10
2022-10-06T02:26:47.855Z,16.10
2022-10-06T02:29:33.751Z,16.10
2022-10-06T02:32:19.878Z,16.10
2022-10-06T02:35:07.011Z,16.10
2022-10-06T02:37:53.691Z,16.10
2022-10-06T02:40:40.429Z,16.10
2022-10-06T02:43:31.632Z,16.10
2022-10-06T02:46:19.211Z,16.10
2022-10-06T02:49:08.946Z,16.00
2022-10-06T02:51:54.897Z,16.00
2022-10-06T02:54:40.618Z,16.00
2022-10-06T02:57:27.442Z,16.00
2022-10-06T03:00:14.072Z,16.00
2022-10-06T03:03:00.339Z,16.00
2022-10-06T03:05:45.979Z,15.90
2022-10-06T03:08:33.095Z,15.90
2022-10-06T03:11:22.058Z,15.90
2022-10-06T03:14:08.486Z,15.90
2022-10-06T03:16:56.731Z,15.80
2022-10-06T03:19:45.028Z,15.80
2022-10-06T03:22:30.730Z,15.80
2022-10-06T03:25:16.754Z,15.70
2022-10-06T03:28:03.185Z,15.70
2022-10-06T03:30:48.855Z,15.60
2022-10-06T03:33:35.662Z,15.60
2022-10-06T03:36:24.166Z,15.60
2022-10-06T03:39:10.259Z,15.60
2022-10-06T03:41:56.855Z,15.60
2022-10-06T03:44:42.493Z,15.50
2022-10-06T03:47:32.949Z,15.60
2022-10-06T03:50:18.861Z,15.50
2022-10-06T03:53:04.443Z,15.50
2022-10-06T03:55:50.961Z,15.50
2022-10-06T03:58:39.398Z,15.50
2022-10-06T04:01:31.070Z,15.40
2022-10-06T04:04:17.195Z,15.40
2022-10-06T04:07:07.017Z,15.40
2022-10-06T04:09:52.470Z,15.40
2022-10-06T04:12:38.073Z,15.30
2022-10-06T04:15:23.659Z,15.30
2022-10-06T04:18:09.274Z,15.30
2022-10-06T04:21:00.233Z,15.30
2022-10-06T04:23:46.070Z,15.20
2022-10-06T04:26:36.936Z,15.20
2022-10-06T04:29:23.502Z,15.20
2022-10-06T04:32:14.992Z,15.20
2022-10-06T04:35:00.954Z,15.20
2022-10-06T04:37:46.712Z,15.20
2022-10-06T04:40:33.323Z,15.20
2022-10-06T04:43:19.120Z,15.20
2022-10-06T04:46:23.942Z,15.20
2022-10-06T04:49:13.544Z,15.20
2022-10-06T04:52:03.954Z,15.20
2022-10-06T04:54:52.491Z,15.20
2022-10-06T04:57:38.448Z,15.10
2022-10-06T05:00:25.176Z,15.20
2022-10-06T05:03:10.782Z,15.20
2022-10-06T05:06:05.199Z,15.10
2022-10-06T05:08:56.103Z,15.10
2022-10-06T05:11:41.750Z,15.10
2022-10-06T05:14:33.440Z,15.10
2022-10-06T05:17:19.487Z,15.10
2022-10-06T05:20:06.695Z,15.10
2022-10-06T05:22:52.253Z,15.10
2022-10-06T05:25:37.840Z,15.10
2022-10-06T05:28:25.343Z,15.00
2022-10-06T05:31:23.565Z,15.10
2022-10-06T05:34:09.560Z,15.10
2022-10-06T05:36:55.715Z,15.10
2022-10-06T05:39:41.367Z,15.10
2022-10-06T05:42:29.650Z,15.10
2022-10-06T05:45:16.619Z,15.10
2022-10-06T05:48:02.292Z,15.20
2022-10-06T05:50:57.947Z,15.20
2022-10-06T05:53:44.294Z,15.30
2022-10-06T05:56:32.834Z,15.50
2022-10-06T05:59:18.718Z,15.90
2022-10-06T06:02:04.874Z,16.30
2022-10-06T06:04:57.550Z,16.70
2022-10-06T06:07:43.223Z,17.10
2022-10-06T06:10:28.806Z,17.60
2022-10-06T06:13:23.181Z,17.90
2022-10-06T06:16:22.490Z,18.20
2022-10-06T06:19:10.297Z,18.60
2022-10-06T06:21:57.763Z,18.90
2022-10-06T06:24:43.360Z,19.30
2022-10-06T06:27:29.809Z,19.60
2022-10-06T06:30:15.482Z,19.90
2022-10-06T06:33:01.925Z,20.10
2022-10-06T06:35:47.455Z,20.50
2022-10-06T06:38:33.503Z,20.80
2022-10-06T06:41:20.443Z,21.00
2022-10-06T06:44:08.444Z,21.00
2022-10-06T06:46:56.470Z,20.70
2022-10-06T06:49:43.174Z,20.40
2022-10-06T06:52:28.890Z,20.10
2022-10-06T06:55:15.313Z,20.10
2022-10-06T06:58:01.149Z,19.90
2022-10-06T07:00:48.382Z,19.80
2022-10-06T07:03:56.118Z,19.80
2022-10-06T07:06:41.846Z,19.70
2022-10-06T07:09:27.728Z,19.70
2022-10-06T07:12:22.962Z,19.70
2022-10-06T07:15:32.261Z,20.00
2022-10-06T07:18:36.539Z,20.10
2022-10-06T07:21:41.459Z,20.10
2022-10-06T07:24:46.264Z,20.20
2022-10-06T07:27:43.102Z,20.40
2022-10-06T07:30:36.033Z,20.40
2022-10-06T07:33:32.336Z,20.50
2022-10-06T07:36:21.167Z,20.60
2022-10-06T07:39:10.699Z,20.60
2022-10-06T07:41:57.275Z,20.80
2022-10-06T07:44:44.692Z,20.70
2022-10-06T07:47:30.311Z,20.80
2022-10-06T07:50:16.087Z,20.90
2022-10-06T07:53:07.656Z,21.10
2022-10-06T07:55:54.819Z,21.20
2022-10-06T07:58:44.660Z,21.30
2022-10-06T08:01:30.765Z,21.30
2022-10-06T08:04:16.326Z,21.40
2022-10-06T08:07:02.024Z,21.40
2022-10-06T08:09:48.734Z,21.30
2022-10-06T08:12:34.326Z,21.20
2022-10-06T08:15:20.060Z,21.30
2022-10-06T08:18:16.553Z,21.30
2022-10-06T08:21:15.682Z,21.50
2022-10-06T08:24:04.563Z,21.60
2022-10-06T08:26:50.659Z,21.70
2022-10-06T08:29:36.542Z,21.70
2022-10-06T08:32:23.458Z,21.80
2022-10-06T08:35:12.348Z,21.70
2022-10-06T08:37:58.582Z,21.80
2022-10-06T08:40:46.519Z,21.80
2022-10-06T08:43:33.634Z,21.70
2022-10-06T08:46:24.749Z,21.60
2022-10-06T08:49:18.353Z,21.60
2022-10-06T08:52:26.378Z,21.70
2022-10-06T08:55:30.074Z,21.80
2022-10-06T08:58:30.243Z,21.90
2022-10-06T09:01:18.967Z,21.90
2022-10-06T09:04:07.262Z,21.90
2022-10-06T09:07:13.088Z,22.00
2022-10-06T09:10:01.752Z,22.00
2022-10-06T09:12:59.931Z,22.10
2022-10-06T09:16:17.602Z,22.10
2022-10-06T09:19:17.534Z,22.00
2022-10-06T09:22:06.788Z,22.10
2022-10-06T09:24:56.904Z,22.20
2022-10-06T09:27:48.850Z,22.20
2022-10-06T09:30:34.397Z,22.20
2022-10-06T09:33:25.178Z,22.20
2022-10-06T09:36:12.377Z,22.20
2022-10-06T09:39:00.273Z,22.20
2022-10-06T09:41:46.312Z,22.20
2022-10-06T09:44:51.526Z,22.20
2022-10-06T09:47:45.911Z,22.10
2022-10-06T09:50:31.717Z,22.00
2022-10-06T09:53:17.670Z,22.10
2022-10-06T09:56:05.083Z,22.20
2022-10-06T09:58:56.541Z,22.20
2022-10-06T10:01:42.165Z,22.30
2022-10-06T10:04:30.369Z,22.30
2022-10-06T10:07:25.411Z,22.30
2022-10-06T10:10:26.289Z,22.30
2022-10-06T10:13:24.225Z,22.30
2022-10-06T10:16:16.455Z,22.50
2022-10-06T10:19:06.011Z,22.40
2022-10-06T10:21:53.362Z,22.50
2022-10-06T10:24:51.262Z,22.60
2022-10-06T10:28:05.580Z,22.60
2022-10-06T10:31:33.807Z,22.70
2022-10-06T10:35:01.198Z,22.70
2022-10-06T10:38:14.596Z,22.70
2022-10-06T10:41:09.714Z,22.80
2022-10-06T10:44:24.935Z,22.80
2022-10-06T10:47:22.927Z,22.80
2022-10-06T10:50:42.692Z,23.00
2022-10-06T10:53:56.231Z,22.90
2022-10-06T10:56:44.002Z,22.90
2022-10-06T10:59:37.443Z,22.80
2022-10-06T11:02:23.662Z,22.70
2022-10-06T11:05:42.597Z,22.60
2022-10-06T11:08:40.419Z,22.60
2022-10-06T11:11:40.243Z,23.20
2022-10-06T11:15:03.478Z,22.80
2022-10-06T11:17:51.806Z,22.80
2022-10-06T11:20:51.105Z,23.00
2022-10-06T11:23:45.323Z,23.00
2022-10-06T11:26:30.831Z,23.00
2022-10-06T11:29:39.111Z,22.90
2022-10-06T11:32:43.736Z,22.80
2022-10-06T11:35:38.539Z,22.80
2022-10-06T11:38:42.355Z,22.80
2022-10-06T11:41:34.619Z,22.90
2022-10-06T11:44:37.792Z,23.00
2022-10-06T11:47:35.459Z,23.00
2022-10-06T11:50:36.598Z,22.90
2022-10-06T11:53:35.104Z,23.00
2022-10-06T11:56:20.902Z,23.20
2022-10-06T11:59:11.589Z,23.10
2022-10-06T12:01:58.393Z,23.00
2022-10-06T12:05:28.463Z,23.10
2022-10-06T12:08:16.821Z,23.10
2022-10-06T12:11:02.409Z,23.10
2022-10-06T12:17:22.594Z,23.10
2022-10-06T12:20:14.400Z,22.90
2022-10-06T12:23:09.018Z,22.90
2022-10-06T12:26:08.279Z,23.00
2022-10-06T12:29:06.209Z,23.10
2022-10-06T12:32:08.647Z,23.20
2022-10-06T12:35:16.563Z,23.40
2022-10-06T12:38:06.683Z,23.40
2022-10-06T12:40:55.667Z,23.50
2022-10-06T12:43:54.521Z,23.40
2022-10-06T12:46:45.317Z,23.40
2022-10-06T12:49:40.371Z,23.50
2022-10-06T12:52:48.203Z,23.40
2022-10-06T12:55:39.991Z,23.40
2022-10-06T12:58:33.329Z,23.40
2022-10-06T13:01:19.736Z,23.40
2022-10-06T13:04:05.543Z,23.30
2022-10-06T13:06:51.011Z,23.30
2022-10-06T13:09:36.989Z,23.30
2022-10-06T13:12:31.514Z,23.30
2022-10-06T13:15:20.688Z,23.10
2022-10-06T13:18:19.526Z,23.10
2022-10-06T13:21:13.235Z,23.20
2022-10-06T13:23:59.764Z,23.40
2022-10-06T13:26:46.607Z,23.40
2022-10-06T13:29:32.078Z,23.40
2022-10-06T13:32:18.717Z,23.40
2022-10-06T13:35:04.993Z,23.50
2022-10-06T13:37:52.627Z,23.50
2022-10-06T13:40:46.192Z,23.40
2022-10-06T13:43:39.717Z,23.40
2022-10-06T13:46:26.858Z,23.40
2022-10-06T13:49:43.078Z,23.50
2022-10-06T13:52:50.616Z,23.50
2022-10-06T13:55:36.519Z,23.50
2022-10-06T13:58:25.317Z,23.50
2022-10-06T14:01:13.051Z,23.50
2022-10-06T14:04:18.163Z,23.50
2022-10-06T14:07:03.872Z,23.50
2022-10-06T14:09:51.730Z,23.40
2022-10-06T14:12:43.929Z,23.40
2022-10-06T14:15:36.337Z,23.40
2022-10-06T14:18:23.747Z,23.50
2022-10-06T14:21:41.491Z,23.50
2022-10-06T14:24:28.465Z,23.50
2022-10-06T14:27:14.250Z,23.50
2022-10-06T14:30:00.336Z,23.50
2022-10-06T14:32:46.126Z,23.50
2022-10-06T14:35:31.594Z,23.50
2022-10-06T14:38:17.711Z,23.50
2022-10-06T14:41:03.766Z,23.50
2022-10-06T14:43:49.274Z,23.50
2022-10-06T14:46:35.407Z,23.50
2022-10-06T14:49:22.144Z,23.40
2022-10-06T14:52:10.529Z,23.40
2022-10-06T14:54:56.704Z,23.30
2022-10-06T14:57:42.574Z,23.40
2022-10-06T15:00:29.055Z,23.30
2022-10-06T15:03:15.169Z,23.30
2022-10-06T15:06:27.845Z,23.30
2022-10-06T15:09:14.256Z,23.30
2022-10-06T15:12:00.281Z,23.30
2022-10-06T15:14:46.012Z,23.30
2022-10-06T15:17:31.784Z,23.30
2022-10-06T15:20:17.329Z,23.20
2022-10-06T15:23:03.227Z,23.20
2022-10-06T15:26:18.944Z,23.20
2022-10-06T15:29:04.934Z,23.10
2022-10-06T15:31:54.989Z,23.10
2022-10-06T15:34:40.950Z,23.10
2022-10-06T15:37:26.804Z,23.00
2022-10-06T15:40:13.118Z,23.00
2022-10-06T15:42:58.560Z,23.00
2022-10-06T15:45:55.278Z,23.00
2022-10-06T15:48:43.048Z,23.00
2022-10-06T15:51:38.374Z,22.90
2022-10-06T15:54:29.624Z,22.90
2022-10-06T15:57:20.565Z,22.90
2022-10-06T16:00:07.840Z,22.90
2022-10-06T16:02:58.091Z,22.80
2022-10-06T16:05:49.638Z,22.70
2022-10-06T16:08:36.055Z,22.70
2022-10-06T16:11:21.908Z,22.70
2022-10-06T16:14:09.702Z,22.70
2022-10-06T16:17:01.874Z,22.60
2022-10-06T16:19:47.412Z,22.60
2022-10-06T16:22:33.024Z,22.50
2022-10-06T16:25:18.620Z,22.50
2022-10-06T16:28:04.051Z,22.40
2022-10-06T16:30:56.185Z,22.40
2022-10-06T16:33:42.215Z,22.30
2022-10-06T16:36:27.929Z,22.30
2022-10-06T16:39:21.422Z,22.20
2022-10-06T16:42:07.053Z,22.20
2022-10-06T16:44:52.663Z,22.10
2022-10-06T16:47:38.447Z,22.10
2022-10-06T16:50:24.049Z,22.00
2022-10-06T16:53:12.422Z,21.90
2022-10-06T16:56:02.411Z,21.90
2022-10-06T16:58:50.405Z,21.90
2022-10-06T17:01:37.418Z,21.80
2022-10-06T17:04:25.226Z,21.70
2022-10-06T17:07:10.827Z,21.70
2022-10-06T17:10:19.087Z,21.60
2022-10-06T17:13:02.055Z,21.50
2022-10-06T17:15:57.921Z,21.50
2022-10-06T17:18:47.734Z,21.40
2022-10-06T17:21:45.500Z,21.40
2022-10-06T17:24:32.331Z,21.30
2022-10-06T17:27:17.889Z,21.20
2022-10-06T17:30:03.848Z,21.20
2022-10-06T17:32:49.543Z,21.10
2022-10-06T17:35:37.364Z,21.00
2022-10-06T17:38:23.118Z,20.90
2022-10-06T17:41:21.478Z,20.80
2022-10-06T17:44:26.185Z,20.80
2022-10-06T17:47:12.327Z,20.70
2022-10-06T17:49:57.797Z,20.60
2022-10-06T17:52:43.752Z,20.60
2022-10-06T17:55:29.715Z,20.50
2022-10-06T17:58:18.709Z,20.40
2022-10-06T18:01:09.153Z,20.40
2022-10-06T18:03:55.414Z,20.40
2022-10-06T18:06:42.155Z,20.30
2022-10-06T18:09:28.030Z,20.20
2022-10-06T18:12:13.719Z,20.20
2022-10-06T18:14:59.033Z,20.10
2022-10-06T18:17:45.201Z,20.10
2022-10-06T18:20:34.019Z,20.00
2022-10-06T18:23:19.448Z,19.90
2022-10-06T18:26:06.461Z,19.90
2022-10-06T18:28:51.927Z,19.90
2022-10-06T18:31:39.076Z,19.80
2022-10-06T18:37:31.072Z,19.70
2022-10-06T18:40:16.652Z,19.70
2022-10-06T18:43:02.726Z,19.60
2022-10-06T18:46:06.828Z,19.60
2022-10-06T18:48:56.033Z,19.60
2022-10-06T18:51:49.226Z,19.40
2022-10-06T18:54:34.834Z,19.40
2022-10-06T18:57:25.100Z,19.40
2022-10-06T19:00:13.442Z,19.30
2022-10-06T19:02:59.025Z,19.20
2022-10-06T19:05:52.685Z,19.20
2022-10-06T19:08:38.156Z,19.20
2022-10-06T19:11:41.976Z,19.10
2022-10-06T19:14:31.797Z,19.10
2022-10-06T19:17:17.391Z,19.10
2022-10-06T19:20:03.129Z,19.00
2022-10-06T19:22:48.864Z,19.00
2022-10-06T19:25:35.045Z,19.00
2022-10-06T19:28:20.693Z,19.00
2022-10-06T19:31:18.634Z,19.00
2022-10-06T19:34:05.255Z,19.00
2022-10-06T19:36:52.937Z,19.00
2022-10-06T19:39:44.936Z,19.00
2022-10-06T19:42:49.093Z,18.90
2022-10-06T19:45:34.994Z,18.90
2022-10-06T19:48:20.680Z,18.90
2022-10-06T19:51:14.869Z,18.80
2022-10-06T19:54:02.623Z,18.80
2022-10-06T19:56:48.494Z,18.80
2022-10-06T19:59:36.613Z,18.80
2022-10-06T20:02:23.399Z,18.80
2022-10-06T20:05:09.082Z,18.70
2022-10-06T20:07:56.087Z,18.70
2022-10-06T20:10:41.771Z,18.70
2022-10-06T20:13:27.385Z,18.60
2022-10-06T20:16:17.358Z,18.60
2022-10-06T20:19:02.890Z,18.60
2022-10-06T20:21:48.757Z,18.60
2022-10-06T20:24:35.218Z,18.60
2022-10-06T20:27:21.054Z,18.50
2022-10-06T20:30:07.592Z,18.50
2022-10-06T20:32:53.566Z,18.50
2022-10-06T20:35:39.144Z,18.50
2022-10-06T20:38:44.823Z,18.50
2022-10-06T20:41:31.981Z,18.50
2022-10-06T20:44:18.207Z,18.40
2022-10-06T20:47:04.647Z,18.40
2022-10-06T20:49:55.185Z,17.70
2022-10-06T20:52:41.011Z,18.30
2022-10-06T20:55:26.380Z,18.30
2022-10-06T20:58:11.943Z,18.30
2022-10-06T21:01:07.065Z,18.30
2022-10-06T21:03:55.837Z,18.20
2022-10-06T21:06:41.838Z,18.10
2022-10-06T21:09:28.825Z,18.10
2022-10-06T21:12:16.043Z,18.10
2022-10-06T21:15:01.585Z,18.00
2022-10-06T21:17:48.335Z,18.00
2022-10-06T21:20:34.671Z,18.00
2022-10-06T21:23:20.239Z,18.00
2022-10-06T21:26:07.776Z,18.00
2022-10-06T21:28:54.131Z,17.90
2022-10-06T21:31:39.873Z,17.90
2022-10-06T21:34:25.379Z,17.90
2022-10-06T21:37:13.595Z,17.90
2022-10-06T21:40:02.357Z,18.00
2022-10-06T21:42:48.377Z,17.90
2022-10-06T21:45:34.298Z,17.90
2022-10-06T21:48:20.130Z,17.90
2022-10-06T21:51:05.920Z,17.90
2022-10-06T21:53:52.611Z,17.80
2022-10-06T21:56:39.108Z,17.80
2022-10-06T21:59:24.695Z,17.80
2022-10-06T22:02:10.546Z,17.70
2022-10-06T22:04:56.045Z,17.70
2022-10-06T22:07:42.237Z,17.70
2022-10-06T22:10:28.076Z,18.10
2022-10-06T22:13:13.779Z,17.70
2022-10-06T22:16:04.105Z,17.70
2022-10-06T22:18:50.702Z,17.60
2022-10-06T22:21:41.860Z,17.60
2022-10-06T22:24:27.574Z,17.60
2022-10-06T22:27:13.101Z,17.60
2022-10-06T22:29:58.586Z,17.50
2022-10-06T22:32:44.352Z,17.60
2022-10-06T22:35:30.118Z,17.60
2022-10-06T22:38:15.757Z,17.50
2022-10-06T22:41:07.368Z,17.50
2022-10-06T22:43:57.367Z,17.50
2022-10-06T22:46:43.655Z,17.50
2022-10-06T22:49:29.757Z,17.40
2022-10-06T22:52:15.465Z,17.50
2022-10-06T22:55:01.009Z,17.40
2022-10-06T22:57:46.690Z,17.40
2022-10-06T23:00:32.432Z,17.40
2022-10-06T23:03:18.907Z,17.40
2022-10-06T23:06:05.533Z,17.40
2022-10-06T23:08:51.384Z,17.40
2022-10-06T23:11:36.878Z,17.40
2022-10-06T23:14:22.652Z,17.30
2022-10-06T23:17:08.348Z,17.30
2022-10-06T23:19:53.772Z,17.30
2022-10-06T23:22:39.697Z,17.20
2022-10-06T23:25:27.338Z,17.20
2022-10-06T23:28:14.198Z,17.20
2022-10-06T23:31:00.114Z,17.20
2022-10-06T23:33:46.401Z,17.20
2022-10-06T23:36:32.556Z,17.20
2022-10-06T23:39:18.158Z,17.10
2022-10-06T23:42:04.080Z,17.10
2022-10-06T23:44:49.595Z,17.10
2022-10-06T23:47:35.201Z,17.10
2022-10-06T23:50:20.797Z,17.10
2022-10-06T23:53:06.444Z,17.10
2022-10-06T23:55:51.996Z,17.00
2022-10-06T23:58:37.924Z,17.10
